sensor_id;sensor_type;location;lat;lon;timestamp;pressure;altitude;pressure_sealevel;temperature;humidity
7824;BME280;3957;48.61947800;9.05303100;2024-01-10T00:00:55;96732.56;;;-8.52;100.00
7824;BME280;3957;48.61947800;9.05303100;2024-01-10T00:01:57;96734.41;;;-8.55;100.00
7824;BME280;3957;48.61947800;9.05303100;2024-01-10T00:03:00;96731.75;;;-8.53;100.00
7824;BME280;3957;48.61947800;9.05303100;2024-01-10T00:04:02;96728.16;;;-8.50;100.00
7824;BME280;3957;48.61947800;9.05303100;2024-01-10T00:05:04;96722.91;;;-8.49;100.00
7824;BME280;3957;48.61947800;9.05303100;2024-01-10T00:06:06;96726.25;;;-8.47;100.00
7824;BME280;3957;48.61947800;9.05303100;2024-01-10T00:07:07;96725.16;;;-8.43;100.00
7824;BME280;3957;48.61947800;9.05303100;2024-01-10T00:08:09;96731.16;;;-8.41;100.00
7824;BME280;3957;48.61947800;9.05303100;2024-01-10T00:09:10;96727.63;;;-8.40;100.00
7824;BME280;3957;48.61947800;9.05303100;2024-01-10T00:10:12;96725.09;;;-8.41;100.00
7824;BME280;3957;48.61947800;9.05303100;2024-01-10T00:11:14;96724.19;;;-8.40;100.00
7824;BME280;3957;48.61947800;9.05303100;2024-01-10T00:12:15;96719.81;;;-8.40;100.00
7824;BME280;3957;48.61947800;9.05303100;2024-01-10T00:13:17;96722.22;;;-8.35;100.00
7824;BME280;3957;48.61947800;9.05303100;2024-01-10T00:14:18;96724.81;;;-8.35;100.00
7824;BME280;3957;48.61947800;9.05303100;2024-01-10T00:15:20;96727.19;;;-8.30;100.00
7824;BME280;3957;48.61947800;9.05303100;2024-01-10T00:16:22;96727.28;;;-8.32;100.00
7824;BME280;3957;48.61947800;9.05303100;2024-01-10T00:17:23;96732.22;;;-8.27;100.00
7824;BME280;3957;48.61947800;9.05303100;2024-01-10T00:18:25;96730.44;;;-8.25;100.00
7824;BME280;3957;48.61947800;9.05303100;2024-01-10T00:19:26;96733.03;;;-8.25;100.00
7824;BME280;3957;48.61947800;9.05303100;2024-01-10T00:20:28;96731.34;;;-8.26;100.00
7824;BME280;3957;48.61947800;9.05303100;2024-01-10T00:21:29;96730.56;;;-8.28;100.00
7824;BME280;3957;48.61947800;9.05303100;2024-01-10T00:22:31;96730.50;;;-8.27;100.00
7824;BME280;3957;48.61947800;9.05303100;2024-01-10T00:23:33;96726.28;;;-8.29;100.00
7824;BME280;3957;48.61947800;9.05303100;2024-01-10T00:24:34;96727.03;;;-8.27;100.00
7824;BME280;3957;48.61947800;9.05303100;2024-01-10T00:25:36;96733.16;;;-8.28;100.00
7824;BME280;3957;48.61947800;9.05303100;2024-01-10T00:26:37;96734.78;;;-8.26;100.00
7824;BME280;3957;48.61947800;9.05303100;2024-01-10T00:27:39;96728.66;;;-8.25;100.00
7824;BME280;3957;48.61947800;9.05303100;2024-01-10T00:28:40;96732.63;;;-8.17;100.00
7824;BME280;3957;48.61947800;9.05303100;2024-01-10T00:29:42;96732.59;;;-8.16;100.00
7824;BME280;3957;48.61947800;9.05303100;2024-01-10T00:30:45;96726.19;;;-8.09;100.00
7824;BME280;3957;48.61947800;9.05303100;2024-01-10T00:31:48;96731.16;;;-8.04;100.00
7824;BME280;3957;48.61947800;9.05303100;2024-01-10T00:32:50;96732.75;;;-8.01;100.00
7824;BME280;3957;48.61947800;9.05303100;2024-01-10T00:33:52;96723.28;;;-8.03;100.00
7824;BME280;3957;48.61947800;9.05303100;2024-01-10T00:34:54;96724.22;;;-8.04;100.00
7824;BME280;3957;48.61947800;9.05303100;2024-01-10T00:35:55;96722.38;;;-8.01;100.00
7824;BME280;3957;48.61947800;9.05303100;2024-01-10T00:36:57;96720.56;;;-7.99;100.00
7824;BME280;3957;48.61947800;9.05303100;2024-01-10T00:37:58;96718.78;;;-7.99;100.00
7824;BME280;3957;48.61947800;9.05303100;2024-01-10T00:39:00;96722.69;;;-7.90;100.00
7824;BME280;3957;48.61947800;9.05303100;2024-01-10T00:40:03;96714.69;;;-7.86;100.00
7824;BME280;3957;48.61947800;9.05303100;2024-01-10T00:41:04;96714.69;;;-7.86;100.00
7824;BME280;3957;48.61947800;9.05303100;2024-01-10T00:42:06;96712.94;;;-7.85;100.00
7824;BME280;3957;48.61947800;9.05303100;2024-01-10T00:43:07;96710.34;;;-7.85;100.00
7824;BME280;3957;48.61947800;9.05303100;2024-01-10T00:44:09;96713.00;;;-7.87;100.00
7824;BME280;3957;48.61947800;9.05303100;2024-01-10T00:45:10;96715.53;;;-7.85;100.00
7824;BME280;3957;48.61947800;9.05303100;2024-01-10T00:46:12;96711.78;;;-7.79;100.00
7824;BME280;3957;48.61947800;9.05303100;2024-01-10T00:47:14;96711.78;;;-7.79;100.00
7824;BME280;3957;48.61947800;9.05303100;2024-01-10T00:48:15;96715.84;;;-7.74;100.00
7824;BME280;3957;48.61947800;9.05303100;2024-01-10T00:49:18;96709.09;;;-7.78;100.00
7824;BME280;3957;48.61947800;9.05303100;2024-01-10T00:50:20;96715.09;;;-7.76;100.00
7824;BME280;3957;48.61947800;9.05303100;2024-01-10T00:51:22;96710.88;;;-7.78;100.00
7824;BME280;3957;48.61947800;9.05303100;2024-01-10T00:52:23;96707.38;;;-7.77;100.00
7824;BME280;3957;48.61947800;9.05303100;2024-01-10T00:53:25;96715.16;;;-7.77;100.00
7824;BME280;3957;48.61947800;9.05303100;2024-01-10T00:54:27;96711.72;;;-7.78;100.00
7824;BME280;3957;48.61947800;9.05303100;2024-01-10T00:55:28;96715.09;;;-7.76;100.00
7824;BME280;3957;48.61947800;9.05303100;2024-01-10T00:56:29;96712.16;;;-7.70;100.00
7824;BME280;3957;48.61947800;9.05303100;2024-01-10T00:57:31;96713.16;;;-7.72;100.00
7824;BME280;3957;48.61947800;9.05303100;2024-01-10T00:58:32;96716.69;;;-7.73;100.00
7824;BME280;3957;48.61947800;9.05303100;2024-01-10T00:59:34;96717.53;;;-7.73;100.00
7824;BME280;3957;48.61947800;9.05303100;2024-01-10T01:00:36;96709.66;;;-7.71;100.00
7824;BME280;3957;48.61947800;9.05303100;2024-01-10T01:01:37;96715.38;;;-7.64;100.00
7824;BME280;3957;48.61947800;9.05303100;2024-01-10T01:02:39;96711.78;;;-7.62;100.00
7824;BME280;3957;48.61947800;9.05303100;2024-01-10T01:03:40;96716.00;;;-7.59;100.00
7824;BME280;3957;48.61947800;9.05303100;2024-01-10T01:04:42;96710.72;;;-7.58;100.00
7824;BME280;3957;48.61947800;9.05303100;2024-01-10T01:05:44;96705.44;;;-7.56;100.00
7824;BME280;3957;48.61947800;9.05303100;2024-01-10T01:06:45;96702.94;;;-7.58;100.00
7824;BME280;3957;48.61947800;9.05303100;2024-01-10T01:07:47;96706.53;;;-7.60;100.00
7824;BME280;3957;48.61947800;9.05303100;2024-01-10T01:08:48;96703.94;;;-7.60;100.00
7824;BME280;3957;48.61947800;9.05303100;2024-01-10T01:09:50;96708.88;;;-7.56;100.00
7824;BME280;3957;48.61947800;9.05303100;2024-01-10T01:10:51;96708.66;;;-7.51;100.00
7824;BME280;3957;48.61947800;9.05303100;2024-01-10T01:11:53;96707.59;;;-7.47;100.00
7824;BME280;3957;48.61947800;9.05303100;2024-01-10T01:12:54;96713.69;;;-7.48;100.00
7824;BME280;3957;48.61947800;9.05303100;2024-01-10T01:13:56;96702.41;;;-7.47;100.00
7824;BME280;3957;48.61947800;9.05303100;2024-01-10T01:14:58;96704.84;;;-7.44;100.00
7824;BME280;3957;48.61947800;9.05303100;2024-01-10T01:15:59;96704.84;;;-7.44;100.00
7824;BME280;3957;48.61947800;9.05303100;2024-01-10T01:17:01;96709.13;;;-7.43;100.00
7824;BME280;3957;48.61947800;9.05303100;2024-01-10T01:18:02;96714.38;;;-7.44;100.00
7824;BME280;3957;48.61947800;9.05303100;2024-01-10T01:19:04;96708.34;;;-7.45;100.00
7824;BME280;3957;48.61947800;9.05303100;2024-01-10T01:20:07;96710.88;;;-7.43;100.00
7824;BME280;3957;48.61947800;9.05303100;2024-01-10T01:21:09;96712.63;;;-7.44;100.00
7824;BME280;3957;48.61947800;9.05303100;2024-01-10T01:22:10;96710.13;;;-7.45;100.00
7824;BME280;3957;48.61947800;9.05303100;2024-01-10T01:23:12;96706.56;;;-7.44;100.00
7824;BME280;3957;48.61947800;9.05303100;2024-01-10T01:24:15;96715.22;;;-7.44;100.00
7824;BME280;3957;48.61947800;9.05303100;2024-01-10T01:25:16;96706.56;;;-7.44;100.00
7824;BME280;3957;48.61947800;9.05303100;2024-01-10T01:26:18;96715.06;;;-7.41;100.00
7824;BME280;3957;48.61947800;9.05303100;2024-01-10T01:27:19;96714.16;;;-7.40;100.00
7824;BME280;3957;48.61947800;9.05303100;2024-01-10T01:28:21;96718.38;;;-7.37;100.00
7824;BME280;3957;48.61947800;9.05303100;2024-01-10T01:29:22;96716.59;;;-7.37;100.00
7824;BME280;3957;48.61947800;9.05303100;2024-01-10T01:30:24;96713.09;;;-7.36;100.00
7824;BME280;3957;48.61947800;9.05303100;2024-01-10T01:31:26;96719.03;;;-7.33;100.00
7824;BME280;3957;48.61947800;9.05303100;2024-01-10T01:32:27;96715.53;;;-7.32;100.00
7824;BME280;3957;48.61947800;9.05303100;2024-01-10T01:33:29;96716.31;;;-7.30;100.00
7824;BME280;3957;48.61947800;9.05303100;2024-01-10T01:34:31;96723.03;;;-7.26;100.00
7824;BME280;3957;48.61947800;9.05303100;2024-01-10T01:35:33;96721.41;;;-7.29;100.00
7824;BME280;3957;48.61947800;9.05303100;2024-01-10T01:36:34;96717.88;;;-7.28;100.00
7824;BME280;3957;48.61947800;9.05303100;2024-01-10T01:37:36;96716.22;;;-7.29;100.00
7824;BME280;3957;48.61947800;9.05303100;2024-01-10T01:38:37;96713.53;;;-7.27;100.00
7824;BME280;3957;48.61947800;9.05303100;2024-01-10T01:39:39;96719.47;;;-7.25;100.00
7824;BME280;3957;48.61947800;9.05303100;2024-01-10T01:40:40;96709.94;;;-7.25;100.00
7824;BME280;3957;48.61947800;9.05303100;2024-01-10T01:41:42;96710.53;;;-7.20;100.00
7824;BME280;3957;48.61947800;9.05303100;2024-01-10T01:42:47;96714.66;;;-7.15;100.00
7824;BME280;3957;48.61947800;9.05303100;2024-01-10T01:43:49;96721.53;;;-7.14;100.00
7824;BME280;3957;48.61947800;9.05303100;2024-01-10T01:44:50;96714.66;;;-7.15;100.00
7824;BME280;3957;48.61947800;9.05303100;2024-01-10T01:45:54;96716.25;;;-7.13;100.00
7824;BME280;3957;48.61947800;9.05303100;2024-01-10T01:46:57;96716.63;;;-7.03;100.00
7824;BME280;3957;48.61947800;9.05303100;2024-01-10T01:47:59;96717.56;;;-7.04;100.00
7824;BME280;3957;48.61947800;9.05303100;2024-01-10T01:49:02;96714.34;;;-7.09;100.00
7824;BME280;3957;48.61947800;9.05303100;2024-01-10T01:50:05;96716.09;;;-7.10;100.00
7824;BME280;3957;48.61947800;9.05303100;2024-01-10T01:51:07;96706.84;;;-7.15;100.00
7824;BME280;3957;48.61947800;9.05303100;2024-01-10T01:52:10;96704.16;;;-7.14;100.00
7824;BME280;3957;48.61947800;9.05303100;2024-01-10T01:53:13;96710.97;;;-7.11;100.00
7824;BME280;3957;48.61947800;9.05303100;2024-01-10T01:54:15;96705.84;;;-7.13;100.00
7824;BME280;3957;48.61947800;9.05303100;2024-01-10T01:55:17;96707.63;;;-7.13;100.00
7824;BME280;3957;48.61947800;9.05303100;2024-01-10T01:56:19;96716.94;;;-7.09;100.00
7824;BME280;3957;48.61947800;9.05303100;2024-01-10T01:57:20;96711.75;;;-7.09;100.00
7824;BME280;3957;48.61947800;9.05303100;2024-01-10T01:58:23;96712.50;;;-7.07;100.00
7824;BME280;3957;48.61947800;9.05303100;2024-01-10T01:59:24;96714.25;;;-7.08;100.00
7824;BME280;3957;48.61947800;9.05303100;2024-01-10T02:00:26;96715.50;;;-7.15;100.00
7824;BME280;3957;48.61947800;9.05303100;2024-01-10T02:01:27;96715.50;;;-7.15;100.00
7824;BME280;3957;48.61947800;9.05303100;2024-01-10T02:02:30;96713.81;;;-7.16;100.00
7824;BME280;3957;48.61947800;9.05303100;2024-01-10T02:03:33;96713.91;;;-7.18;100.00
7824;BME280;3957;48.61947800;9.05303100;2024-01-10T02:04:36;96718.50;;;-7.23;100.00
7824;BME280;3957;48.61947800;9.05303100;2024-01-10T02:05:38;96714.06;;;-7.21;100.00
7824;BME280;3957;48.61947800;9.05303100;2024-01-10T02:06:39;96713.38;;;-7.24;100.00
7824;BME280;3957;48.61947800;9.05303100;2024-01-10T02:07:41;96712.47;;;-7.23;100.00
7824;BME280;3957;48.61947800;9.05303100;2024-01-10T02:08:42;96718.56;;;-7.24;100.00
7824;BME280;3957;48.61947800;9.05303100;2024-01-10T02:09:44;96713.53;;;-7.27;100.00
7824;BME280;3957;48.61947800;9.05303100;2024-01-10T02:10:46;96714.53;;;-7.30;100.00
7824;BME280;3957;48.61947800;9.05303100;2024-01-10T02:11:47;96717.97;;;-7.29;100.00
7824;BME280;3957;48.61947800;9.05303100;2024-01-10T02:12:50;96714.78;;;-7.35;100.00
7824;BME280;3957;48.61947800;9.05303100;2024-01-10T02:13:52;96716.34;;;-7.32;100.00
7824;BME280;3957;48.61947800;9.05303100;2024-01-10T02:14:56;96714.63;;;-7.31;100.00
7824;BME280;3957;48.61947800;9.05303100;2024-01-10T02:15:58;96707.81;;;-7.34;100.00
7824;BME280;3957;48.61947800;9.05303100;2024-01-10T02:17:00;96710.41;;;-7.34;100.00
7824;BME280;3957;48.61947800;9.05303100;2024-01-10T02:18:01;96708.34;;;-7.27;100.00
7824;BME280;3957;48.61947800;9.05303100;2024-01-10T02:19:20;96711.03;;;-7.29;100.00
7824;BME280;3957;48.61947800;9.05303100;2024-01-10T02:20:30;96706.03;;;-7.33;100.00
7824;BME280;3957;48.61947800;9.05303100;2024-01-10T02:21:32;96700.53;;;-7.27;100.00
7824;BME280;3957;48.61947800;9.05303100;2024-01-10T02:22:33;96706.47;;;-7.25;100.00
7824;BME280;3957;48.61947800;9.05303100;2024-01-10T02:23:35;96709.34;;;-7.30;100.00
7824;BME280;3957;48.61947800;9.05303100;2024-01-10T02:24:36;96705.94;;;-7.32;100.00
7824;BME280;3957;48.61947800;9.05303100;2024-01-10T02:25:39;96708.41;;;-7.29;100.00
7824;BME280;3957;48.61947800;9.05303100;2024-01-10T02:26:41;96702.28;;;-7.28;100.00
7824;BME280;3957;48.61947800;9.05303100;2024-01-10T02:27:43;96696.94;;;-7.25;100.00
7824;BME280;3957;48.61947800;9.05303100;2024-01-10T02:28:45;96704.56;;;-7.22;100.00
7824;BME280;3957;48.61947800;9.05303100;2024-01-10T02:29:46;96701.19;;;-7.24;100.00
7824;BME280;3957;48.61947800;9.05303100;2024-01-10T02:30:49;96706.41;;;-7.24;100.00
7824;BME280;3957;48.61947800;9.05303100;2024-01-10T02:31:51;96697.59;;;-7.21;100.00
7824;BME280;3957;48.61947800;9.05303100;2024-01-10T02:32:53;96703.72;;;-7.22;100.00
7824;BME280;3957;48.61947800;9.05303100;2024-01-10T02:33:54;96700.22;;;-7.21;100.00
7824;BME280;3957;48.61947800;9.05303100;2024-01-10T02:34:57;96696.84;;;-7.23;100.00
7824;BME280;3957;48.61947800;9.05303100;2024-01-10T02:35:59;96697.78;;;-7.24;100.00
7824;BME280;3957;48.61947800;9.05303100;2024-01-10T02:37:00;96700.28;;;-7.23;100.00
7824;BME280;3957;48.61947800;9.05303100;2024-01-10T02:38:03;96700.22;;;-7.21;100.00
7824;BME280;3957;48.61947800;9.05303100;2024-01-10T02:39:05;96694.00;;;-7.19;100.00
7824;BME280;3957;48.61947800;9.05303100;2024-01-10T02:40:08;96694.91;;;-7.20;100.00
7824;BME280;3957;48.61947800;9.05303100;2024-01-10T02:41:10;96695.78;;;-7.19;100.00
7824;BME280;3957;48.61947800;9.05303100;2024-01-10T02:42:11;96696.31;;;-7.12;100.00
7824;BME280;3957;48.61947800;9.05303100;2024-01-10T02:43:13;96695.28;;;-7.10;100.00
7824;BME280;3957;48.61947800;9.05303100;2024-01-10T02:44:14;96694.44;;;-7.10;100.00
7824;BME280;3957;48.61947800;9.05303100;2024-01-10T02:45:18;96695.16;;;-7.07;100.00
7824;BME280;3957;48.61947800;9.05303100;2024-01-10T02:46:19;96701.94;;;-7.04;100.00
7824;BME280;3957;48.61947800;9.05303100;2024-01-10T02:47:24;96692.22;;;-7.01;100.00
7824;BME280;3957;48.61947800;9.05303100;2024-01-10T02:48:25;96695.34;;;-6.94;100.00
7824;BME280;3957;48.61947800;9.05303100;2024-01-10T02:49:27;96686.19;;;-7.01;100.00
7824;BME280;3957;48.61947800;9.05303100;2024-01-10T02:50:29;96695.72;;;-7.02;100.00
7824;BME280;3957;48.61947800;9.05303100;2024-01-10T02:51:31;96693.19;;;-7.03;100.00
7824;BME280;3957;48.61947800;9.05303100;2024-01-10T02:52:32;96694.38;;;-7.09;100.00
7824;BME280;3957;48.61947800;9.05303100;2024-01-10T02:53:34;96687.44;;;-7.08;100.00
7824;BME280;3957;48.61947800;9.05303100;2024-01-10T02:54:35;96690.06;;;-7.10;100.00
7824;BME280;3957;48.61947800;9.05303100;2024-01-10T02:55:37;96688.34;;;-7.09;100.00
7824;BME280;3957;48.61947800;9.05303100;2024-01-10T02:56:38;96689.94;;;-7.07;100.00
7824;BME280;3957;48.61947800;9.05303100;2024-01-10T02:57:40;96679.28;;;-7.02;100.00
7824;BME280;3957;48.61947800;9.05303100;2024-01-10T02:58:41;96681.72;;;-6.99;100.00
7824;BME280;3957;48.61947800;9.05303100;2024-01-10T02:59:43;96685.09;;;-6.97;100.00
7824;BME280;3957;48.61947800;9.05303100;2024-01-10T03:00:44;96683.41;;;-6.98;100.00
7824;BME280;3957;48.61947800;9.05303100;2024-01-10T03:01:46;96679.38;;;-7.04;100.00
7824;BME280;3957;48.61947800;9.05303100;2024-01-10T03:02:47;96683.97;;;-7.09;100.00
7824;BME280;3957;48.61947800;9.05303100;2024-01-10T03:03:49;96684.06;;;-7.10;100.00
7824;BME280;3957;48.61947800;9.05303100;2024-01-10T03:04:50;96684.97;;;-7.11;100.00
7824;BME280;3957;48.61947800;9.05303100;2024-01-10T03:05:52;96685.75;;;-7.09;100.00
7824;BME280;3957;48.61947800;9.05303100;2024-01-10T03:06:54;96686.25;;;-7.03;100.00
7824;BME280;3957;48.61947800;9.05303100;2024-01-10T03:07:55;96683.50;;;-6.99;100.00
7824;BME280;3957;48.61947800;9.05303100;2024-01-10T03:08:57;96679.38;;;-7.04;100.00
7824;BME280;3957;48.61947800;9.05303100;2024-01-10T03:09:59;96678.38;;;-7.01;100.00
7824;BME280;3957;48.61947800;9.05303100;2024-01-10T03:11:00;96676.50;;;-6.99;100.00
7824;BME280;3957;48.61947800;9.05303100;2024-01-10T03:12:02;96680.72;;;-6.96;100.00
7824;BME280;3957;48.61947800;9.05303100;2024-01-10T03:13:03;96676.78;;;-7.04;100.00
7824;BME280;3957;48.61947800;9.05303100;2024-01-10T03:14:09;96675.44;;;-6.95;100.00
7824;BME280;3957;48.61947800;9.05303100;2024-01-10T03:15:11;96675.78;;;-7.01;100.00
7824;BME280;3957;48.61947800;9.05303100;2024-01-10T03:16:13;96675.78;;;-7.01;100.00
7824;BME280;3957;48.61947800;9.05303100;2024-01-10T03:17:15;96677.13;;;-6.94;100.00
7824;BME280;3957;48.61947800;9.05303100;2024-01-10T03:18:17;96677.94;;;-6.93;100.00
7824;BME280;3957;48.61947800;9.05303100;2024-01-10T03:19:19;96668.63;;;-6.97;100.00
7824;BME280;3957;48.61947800;9.05303100;2024-01-10T03:20:21;96680.63;;;-6.95;100.00
7824;BME280;3957;48.61947800;9.05303100;2024-01-10T03:21:22;96673.25;;;-7.03;100.00
7824;BME280;3957;48.61947800;9.05303100;2024-01-10T03:22:25;96677.22;;;-6.95;100.00
7824;BME280;3957;48.61947800;9.05303100;2024-01-10T03:23:27;96665.88;;;-6.94;100.00
7824;BME280;3957;48.61947800;9.05303100;2024-01-10T03:24:29;96667.53;;;-6.93;100.00
7824;BME280;3957;48.61947800;9.05303100;2024-01-10T03:25:30;96665.19;;;-6.98;100.00
7824;BME280;3957;48.61947800;9.05303100;2024-01-10T03:26:32;96665.28;;;-6.99;100.00
7824;BME280;3957;48.61947800;9.05303100;2024-01-10T03:27:33;96661.56;;;-7.11;100.00
7824;BME280;3957;48.61947800;9.05303100;2024-01-10T03:28:35;96660.19;;;-7.19;100.00
7824;BME280;3957;48.61947800;9.05303100;2024-01-10T03:29:36;96663.22;;;-7.26;100.00
7824;BME280;3957;48.61947800;9.05303100;2024-01-10T03:30:38;96660.00;;;-7.31;100.00
7824;BME280;3957;48.61947800;9.05303100;2024-01-10T03:31:39;96660.00;;;-7.31;100.00
7824;BME280;3957;48.61947800;9.05303100;2024-01-10T03:32:41;96661.16;;;-7.37;100.00
7824;BME280;3957;48.61947800;9.05303100;2024-01-10T03:33:43;96666.59;;;-7.42;100.00
7824;BME280;3957;48.61947800;9.05303100;2024-01-10T03:34:45;96666.66;;;-7.43;100.00
7824;BME280;3957;48.61947800;9.05303100;2024-01-10T03:35:47;96665.38;;;-7.35;100.00
7824;BME280;3957;48.61947800;9.05303100;2024-01-10T03:36:49;96653.66;;;-7.43;100.00
7824;BME280;3957;48.61947800;9.05303100;2024-01-10T03:37:50;96666.13;;;-7.50;100.00
7824;BME280;3957;48.61947800;9.05303100;2024-01-10T03:38:52;96667.22;;;-7.54;100.00
7824;BME280;3957;48.61947800;9.05303100;2024-01-10T03:39:54;96663.69;;;-7.53;100.00
7824;BME280;3957;48.61947800;9.05303100;2024-01-10T03:40:55;96663.69;;;-7.53;100.00
7824;BME280;3957;48.61947800;9.05303100;2024-01-10T03:41:57;96668.16;;;-7.55;100.00
7824;BME280;3957;48.61947800;9.05303100;2024-01-10T03:42:58;96657.50;;;-7.50;100.00
7824;BME280;3957;48.61947800;9.05303100;2024-01-10T03:44:00;96661.94;;;-7.53;100.00
7824;BME280;3957;48.61947800;9.05303100;2024-01-10T03:45:03;96661.03;;;-7.52;100.00
7824;BME280;3957;48.61947800;9.05303100;2024-01-10T03:46:04;96668.06;;;-7.54;100.00
7824;BME280;3957;48.61947800;9.05303100;2024-01-10T03:47:07;96662.00;;;-7.54;100.00
7824;BME280;3957;48.61947800;9.05303100;2024-01-10T03:48:08;96664.69;;;-7.56;100.00
7824;BME280;3957;48.61947800;9.05303100;2024-01-10T03:49:10;96668.28;;;-7.58;100.00
7824;BME280;3957;48.61947800;9.05303100;2024-01-10T03:50:11;96672.34;;;-7.53;100.00
7824;BME280;3957;48.61947800;9.05303100;2024-01-10T03:51:17;96668.16;;;-7.55;100.00
7824;BME280;3957;48.61947800;9.05303100;2024-01-10T03:52:19;96670.06;;;-7.59;100.00
7824;BME280;3957;48.61947800;9.05303100;2024-01-10T03:53:21;96671.66;;;-7.56;100.00
7824;BME280;3957;48.61947800;9.05303100;2024-01-10T03:54:22;96669.22;;;-7.59;100.00
7824;BME280;3957;48.61947800;9.05303100;2024-01-10T03:55:24;96674.44;;;-7.59;100.00
7824;BME280;3957;48.61947800;9.05303100;2024-01-10T03:56:25;96674.03;;;-7.52;100.00
7824;BME280;3957;48.61947800;9.05303100;2024-01-10T03:57:27;96680.13;;;-7.53;100.00
7824;BME280;3957;48.61947800;9.05303100;2024-01-10T03:58:29;96668.91;;;-7.53;100.00
7824;BME280;3957;48.61947800;9.05303100;2024-01-10T03:59:30;96680.81;;;-7.49;100.00
7824;BME280;3957;48.61947800;9.05303100;2024-01-10T04:00:32;96679.06;;;-7.48;100.00
7824;BME280;3957;48.61947800;9.05303100;2024-01-10T04:01:36;96679.13;;;-7.50;100.00
7824;BME280;3957;48.61947800;9.05303100;2024-01-10T04:02:40;96679.91;;;-7.48;100.00
7824;BME280;3957;48.61947800;9.05303100;2024-01-10T04:03:42;96680.66;;;-7.46;100.00
7824;BME280;3957;48.61947800;9.05303100;2024-01-10T04:04:43;96677.00;;;-7.42;100.00
7824;BME280;3957;48.61947800;9.05303100;2024-01-10T04:05:45;96674.31;;;-7.40;100.00
7824;BME280;3957;48.61947800;9.05303100;2024-01-10T04:06:46;96676.00;;;-7.39;100.00
7824;BME280;3957;48.61947800;9.05303100;2024-01-10T04:07:48;96675.16;;;-7.40;100.00
7824;BME280;3957;48.61947800;9.05303100;2024-01-10T04:08:49;96679.50;;;-7.40;100.00
7824;BME280;3957;48.61947800;9.05303100;2024-01-10T04:09:51;96681.88;;;-7.36;100.00
7824;BME280;3957;48.61947800;9.05303100;2024-01-10T04:10:52;96678.28;;;-7.33;100.00
7824;BME280;3957;48.61947800;9.05303100;2024-01-10T04:11:54;96678.28;;;-7.33;100.00
7824;BME280;3957;48.61947800;9.05303100;2024-01-10T04:12:56;96682.56;;;-7.32;100.00
7824;BME280;3957;48.61947800;9.05303100;2024-01-10T04:13:57;96682.50;;;-7.30;100.00
7824;BME280;3957;48.61947800;9.05303100;2024-01-10T04:14:59;96683.41;;;-7.31;100.00
7824;BME280;3957;48.61947800;9.05303100;2024-01-10T04:16:00;96680.66;;;-7.28;100.00
7824;BME280;3957;48.61947800;9.05303100;2024-01-10T04:17:02;96671.06;;;-7.28;100.00
7824;BME280;3957;48.61947800;9.05303100;2024-01-10T04:18:06;96674.44;;;-7.26;100.00
7824;BME280;3957;48.61947800;9.05303100;2024-01-10T04:19:08;96680.66;;;-7.28;100.00
7824;BME280;3957;48.61947800;9.05303100;2024-01-10T04:20:09;96685.09;;;-7.30;100.00
7824;BME280;3957;48.61947800;9.05303100;2024-01-10T04:21:12;96684.16;;;-7.29;100.00
7824;BME280;3957;48.61947800;9.05303100;2024-01-10T04:22:13;96674.69;;;-7.30;100.00
7824;BME280;3957;48.61947800;9.05303100;2024-01-10T04:23:15;96679.13;;;-7.32;100.00
7824;BME280;3957;48.61947800;9.05303100;2024-01-10T04:24:16;96681.81;;;-7.34;100.00
7824;BME280;3957;48.61947800;9.05303100;2024-01-10T04:25:18;96676.69;;;-7.36;100.00
7824;BME280;3957;48.61947800;9.05303100;2024-01-10T04:26:20;96676.91;;;-7.40;100.00
7824;BME280;3957;48.61947800;9.05303100;2024-01-10T04:27:21;96679.50;;;-7.40;100.00
7824;BME280;3957;48.61947800;9.05303100;2024-01-10T04:28:23;96678.59;;;-7.39;100.00
7824;BME280;3957;48.61947800;9.05303100;2024-01-10T04:29:24;96679.59;;;-7.42;100.00
7824;BME280;3957;48.61947800;9.05303100;2024-01-10T04:30:26;96677.16;;;-7.45;100.00
7824;BME280;3957;48.61947800;9.05303100;2024-01-10T04:31:27;96677.94;;;-7.43;100.00
7824;BME280;3957;48.61947800;9.05303100;2024-01-10T04:32:29;96679.59;;;-7.42;100.00
7824;BME280;3957;48.61947800;9.05303100;2024-01-10T04:33:31;96677.97;;;-7.44;100.00
7824;BME280;3957;48.61947800;9.05303100;2024-01-10T04:34:32;96688.47;;;-7.46;100.00
7824;BME280;3957;48.61947800;9.05303100;2024-01-10T04:35:34;96687.53;;;-7.45;100.00
7824;BME280;3957;48.61947800;9.05303100;2024-01-10T04:36:35;96690.97;;;-7.44;100.00
7824;BME280;3957;48.61947800;9.05303100;2024-01-10T04:37:37;96682.34;;;-7.45;100.00
7824;BME280;3957;48.61947800;9.05303100;2024-01-10T04:38:39;96681.59;;;-7.47;100.00
7824;BME280;3957;48.61947800;9.05303100;2024-01-10T04:39:40;96687.63;;;-7.46;100.00
7824;BME280;3957;48.61947800;9.05303100;2024-01-10T04:40:44;96680.81;;;-7.49;100.00
7824;BME280;3957;48.61947800;9.05303100;2024-01-10T04:41:45;96685.13;;;-7.48;100.00
7824;BME280;3957;48.61947800;9.05303100;2024-01-10T04:42:47;96681.44;;;-7.44;100.00
7824;BME280;3957;48.61947800;9.05303100;2024-01-10T04:43:49;96684.13;;;-7.45;100.00
7824;BME280;3957;48.61947800;9.05303100;2024-01-10T04:44:50;96675.63;;;-7.49;100.00
7824;BME280;3957;48.61947800;9.05303100;2024-01-10T04:45:52;96686.19;;;-7.52;100.00
7824;BME280;3957;48.61947800;9.05303100;2024-01-10T04:46:53;96685.41;;;-7.54;100.00
7824;BME280;3957;48.61947800;9.05303100;2024-01-10T04:47:55;96681.97;;;-7.55;100.00
7824;BME280;3957;48.61947800;9.05303100;2024-01-10T04:48:57;96679.53;;;-7.58;100.00
7824;BME280;3957;48.61947800;9.05303100;2024-01-10T04:49:58;96679.53;;;-7.58;100.00
7824;BME280;3957;48.61947800;9.05303100;2024-01-10T04:51:00;96677.69;;;-7.56;100.00
7824;BME280;3957;48.61947800;9.05303100;2024-01-10T04:52:02;96678.47;;;-7.54;100.00
7824;BME280;3957;48.61947800;9.05303100;2024-01-10T04:53:03;96673.56;;;-7.60;100.00